createdAt,value
2018-07-26T00:02:57.517Z,23.00
2018-07-26T00:08:00.011Z,23.00
2018-07-26T00:13:03.328Z,22.80
2018-07-26T00:18:05.812Z,22.80
2018-07-26T00:23:08.322Z,22.70
2018-07-26T00:28:11.569Z,22.60
2018-07-26T00:33:14.141Z,22.60
2018-07-26T00:38:16.621Z,22.60
2018-07-26T00:43:19.140Z,22.50
2018-07-26T00:48:21.625Z,22.40
2018-07-26T00:53:24.120Z,22.40
2018-07-26T00:58:27.371Z,22.20
2018-07-26T01:09:26.391Z,22.20
2018-07-26T01:14:29.681Z,22.10
2018-07-26T01:19:32.925Z,22.00
2018-07-26T01:24:35.413Z,22.00
2018-07-26T01:29:38.713Z,21.90
2018-07-26T01:34:41.960Z,21.90
2018-07-26T01:39:44.442Z,21.80
2018-07-26T01:44:47.020Z,21.80
2018-07-26T01:49:50.337Z,21.70
2018-07-26T01:54:52.834Z,21.70
2018-07-26T01:59:55.304Z,21.70
2018-07-26T02:04:57.836Z,21.60
2018-07-26T02:10:00.329Z,21.50
2018-07-26T02:15:02.826Z,21.50
2018-07-26T02:20:05.328Z,21.40
2018-07-26T02:25:08.578Z,21.40
2018-07-26T02:30:11.054Z,21.30
2018-07-26T02:35:13.642Z,21.30
2018-07-26T02:40:16.341Z,21.20
2018-07-26T02:45:19.582Z,21.20
2018-07-26T02:50:22.157Z,21.10
2018-07-26T02:55:24.657Z,21.10
2018-07-26T03:00:27.151Z,21.10
2018-07-26T03:05:29.629Z,21.00
2018-07-26T03:10:32.124Z,21.00
2018-07-26T03:15:34.650Z,20.90
2018-07-26T03:20:37.880Z,20.80
2018-07-26T03:25:40.357Z,20.80
2018-07-26T03:30:42.858Z,20.80
2018-07-26T03:35:45.328Z,20.70
2018-07-26T03:40:47.816Z,20.70
2018-07-26T03:45:50.296Z,20.60
2018-07-26T03:50:52.844Z,20.60
2018-07-26T03:55:55.331Z,20.60
2018-07-26T04:00:57.816Z,20.50
2018-07-26T04:06:00.300Z,20.50
2018-07-26T04:11:02.789Z,20.40
2018-07-26T04:16:05.269Z,20.40
2018-07-26T04:21:07.836Z,20.40
2018-07-26T04:26:10.389Z,20.30
2018-07-26T04:31:13.644Z,20.30
2018-07-26T04:36:17.562Z,20.30
2018-07-26T04:41:20.053Z,20.30
2018-07-26T04:46:22.573Z,20.30
2018-07-26T04:51:25.892Z,20.30
2018-07-26T04:56:29.132Z,20.40
2018-07-26T05:01:31.865Z,20.40
2018-07-26T05:06:34.348Z,20.50
2018-07-26T05:11:36.830Z,20.50
2018-07-26T05:16:39.327Z,20.60
2018-07-26T05:21:41.897Z,20.70
2018-07-26T05:26:44.398Z,20.80
2018-07-26T05:31:47.584Z,20.90
2018-07-26T05:36:50.069Z,21.00
2018-07-26T05:41:52.565Z,21.20
2018-07-26T05:46:55.613Z,21.30
2018-07-26T05:51:58.112Z,21.60
2018-07-26T05:57:01.345Z,22.00
2018-07-26T06:02:03.845Z,21.90
2018-07-26T06:07:06.425Z,22.30
2018-07-26T06:12:08.916Z,22.60
2018-07-26T06:17:11.417Z,22.80
2018-07-26T06:22:13.916Z,23.10
2018-07-26T06:27:17.245Z,23.80
2018-07-26T06:32:20.540Z,24.10
2018-07-26T06:37:23.813Z,24.40
2018-07-26T06:42:26.288Z,24.40
2018-07-26T06:47:28.965Z,24.80
2018-07-26T06:52:31.416Z,25.10
2018-07-26T06:57:33.892Z,25.50
2018-07-26T07:02:36.456Z,25.90
2018-07-26T07:07:38.951Z,26.20
2018-07-26T07:12:41.451Z,26.40
2018-07-26T07:17:44.764Z,26.70
2018-07-26T07:22:47.260Z,27.00
2018-07-26T07:27:49.770Z,27.30
2018-07-26T07:32:53.081Z,28.00
2018-07-26T07:37:55.573Z,28.00
2018-07-26T07:42:58.077Z,28.30
2018-07-26T07:48:00.561Z,28.70
2018-07-26T07:53:03.041Z,29.00
2018-07-26T07:58:05.561Z,29.30
2018-07-26T08:03:08.817Z,29.80
2018-07-26T08:08:11.292Z,29.80
2018-07-26T08:13:13.890Z,30.10
2018-07-26T08:18:16.384Z,30.30
2018-07-26T08:23:19.697Z,30.80
2018-07-26T08:28:22.172Z,30.80
2018-07-26T08:33:24.706Z,31.00
2018-07-26T08:38:27.290Z,31.20
2018-07-26T08:43:29.755Z,31.40
2018-07-26T08:48:32.241Z,31.60
2018-07-26T08:53:34.720Z,31.80
2018-07-26T08:58:37.277Z,32.00
2018-07-26T09:03:40.521Z,32.30
2018-07-26T09:08:43.005Z,32.30
2018-07-26T09:13:46.197Z,32.40
2018-07-26T09:18:48.652Z,32.60
2018-07-26T09:23:51.202Z,32.70
2018-07-26T09:28:53.716Z,32.90
2018-07-26T09:33:56.136Z,33.00
2018-07-26T09:38:58.722Z,33.10
2018-07-26T09:44:01.205Z,33.30
2018-07-26T09:49:03.791Z,33.40
2018-07-26T09:54:07.037Z,33.70
2018-07-26T09:59:09.602Z,33.60
2018-07-26T10:04:12.097Z,33.80
2018-07-26T10:09:15.344Z,33.60
2018-07-26T10:14:17.925Z,33.60
2018-07-26T10:19:21.238Z,33.50
2018-07-26T10:24:23.729Z,33.50
2018-07-26T10:29:26.217Z,33.40
2018-07-26T10:34:28.720Z,33.40
2018-07-26T10:39:31.197Z,33.60
2018-07-26T10:44:33.701Z,33.70
2018-07-26T10:49:36.165Z,33.80
2018-07-26T10:54:38.649Z,33.80
2018-07-26T10:59:41.208Z,33.80
2018-07-26T11:04:44.532Z,34.00
2018-07-26T11:09:47.628Z,34.00
2018-07-26T11:14:50.137Z,34.10
2018-07-26T11:19:52.634Z,34.20
2018-07-26T11:24:55.955Z,34.40
2018-07-26T11:29:59.215Z,34.50
2018-07-26T11:35:01.688Z,34.40
2018-07-26T11:40:04.173Z,34.60
2018-07-26T11:45:07.440Z,34.90
2018-07-26T11:50:09.982Z,34.90
2018-07-26T11:55:12.404Z,35.10
2018-07-26T12:00:14.893Z,35.20
2018-07-26T12:05:17.399Z,35.20
2018-07-26T12:10:19.895Z,35.30
2018-07-26T12:15:22.378Z,35.50
2018-07-26T12:20:24.874Z,35.60
2018-07-26T12:25:28.120Z,35.70
2018-07-26T12:30:30.614Z,35.60
2018-07-26T12:35:33.122Z,35.70
2018-07-26T12:40:35.602Z,35.80
2018-07-26T12:45:38.104Z,35.90
2018-07-26T12:50:40.589Z,35.90
2018-07-26T12:55:43.154Z,35.90
2018-07-26T13:00:45.600Z,35.90
2018-07-26T13:05:48.089Z,35.90
2018-07-26T13:10:50.569Z,36.00
2018-07-26T13:15:53.054Z,36.10
2018-07-26T13:20:56.297Z,36.10
2018-07-26T13:25:58.776Z,36.00
2018-07-26T13:31:01.262Z,36.00
2018-07-26T13:36:03.744Z,35.90
2018-07-26T13:41:06.245Z,35.70
2018-07-26T13:46:08.741Z,35.60
2018-07-26T13:51:11.225Z,35.50
2018-07-26T13:56:13.721Z,35.30
2018-07-26T14:01:16.204Z,35.30
2018-07-26T14:06:18.685Z,35.20
2018-07-26T14:11:21.184Z,35.20
2018-07-26T14:16:23.669Z,35.20
2018-07-26T14:21:26.150Z,35.20
2018-07-26T14:26:28.637Z,35.20
2018-07-26T14:31:31.131Z,35.30
2018-07-26T14:36:33.608Z,35.30
2018-07-26T14:41:36.090Z,35.10
2018-07-26T14:46:38.570Z,34.90
2018-07-26T14:51:41.041Z,34.70
2018-07-26T14:56:43.541Z,34.50
2018-07-26T15:01:46.030Z,34.30
2018-07-26T15:06:48.547Z,34.30
2018-07-26T15:11:51.063Z,34.20
2018-07-26T15:16:53.491Z,34.20
2018-07-26T15:21:55.974Z,34.20
2018-07-26T15:26:58.450Z,34.20
2018-07-26T15:32:00.932Z,34.10
2018-07-26T15:37:03.413Z,34.10
2018-07-26T15:42:05.908Z,34.00
2018-07-26T15:47:08.394Z,34.00
2018-07-26T15:52:11.663Z,33.90
2018-07-26T15:57:14.142Z,33.80
2018-07-26T16:02:16.608Z,33.90
2018-07-26T16:07:19.101Z,33.80
2018-07-26T16:12:22.370Z,33.70
2018-07-26T16:17:24.983Z,33.70
2018-07-26T16:22:27.573Z,33.70
2018-07-26T16:27:29.993Z,33.60
2018-07-26T16:32:32.501Z,33.60
2018-07-26T16:37:34.976Z,33.40
2018-07-26T16:42:37.461Z,33.40
2018-07-26T16:47:39.940Z,33.40
2018-07-26T16:52:42.416Z,33.30
2018-07-26T16:57:44.933Z,33.10
2018-07-26T17:02:47.444Z,33.00
2018-07-26T17:07:49.927Z,33.00
2018-07-26T17:12:52.413Z,32.90
2018-07-26T17:17:54.901Z,32.80
2018-07-26T17:22:57.400Z,32.80
2018-07-26T17:28:00.637Z,32.50
2018-07-26T17:33:03.121Z,32.50
2018-07-26T17:38:05.697Z,32.40
2018-07-26T17:43:08.185Z,32.20
2018-07-26T17:48:10.693Z,32.10
2018-07-26T17:53:14.020Z,31.90
2018-07-26T17:58:16.502Z,31.80
2018-07-26T18:03:19.004Z,31.70
2018-07-26T18:08:22.257Z,31.40
2018-07-26T18:13:24.741Z,31.40
2018-07-26T18:18:27.519Z,31.30
2018-07-26T18:23:30.008Z,31.10
2018-07-26T18:28:33.261Z,30.90
2018-07-26T18:33:35.753Z,30.90
2018-07-26T18:38:38.251Z,30.80
2018-07-26T18:43:40.759Z,30.70
2018-07-26T18:48:43.309Z,30.50
2018-07-26T18:53:45.808Z,30.40
2018-07-26T18:58:48.312Z,30.30
2018-07-26T19:03:50.802Z,30.10
2018-07-26T19:08:53.300Z,30.00
2018-07-26T19:13:55.789Z,29.80
2018-07-26T19:18:58.292Z,29.70
2018-07-26T19:24:00.797Z,29.50
2018-07-26T19:29:03.293Z,29.40
2018-07-26T19:34:05.795Z,29.20
2018-07-26T19:39:08.301Z,29.10
2018-07-26T19:44:11.612Z,28.80
2018-07-26T19:49:14.073Z,28.80
2018-07-26T19:54:16.577Z,28.70
2018-07-26T19:59:19.068Z,28.60
2018-07-26T20:04:21.570Z,28.40
2018-07-26T20:09:24.061Z,28.30
2018-07-26T20:14:26.562Z,28.20
2018-07-26T20:19:29.715Z,28.10
2018-07-26T20:24:32.196Z,27.90
2018-07-26T20:29:34.697Z,27.70
2018-07-26T20:34:37.216Z,27.60
2018-07-26T20:39:39.848Z,27.40
2018-07-26T20:44:42.420Z,27.20
2018-07-26T20:49:44.978Z,27.10
2018-07-26T20:54:47.469Z,27.00
2018-07-26T20:59:50.039Z,26.90
2018-07-26T21:04:52.578Z,26.80
2018-07-26T21:09:55.070Z,26.80
2018-07-26T21:14:57.573Z,26.70
2018-07-26T21:20:00.061Z,26.50
2018-07-26T21:25:02.560Z,26.40
2018-07-26T21:30:05.053Z,26.40
2018-07-26T21:35:07.572Z,26.30
2018-07-26T21:40:10.045Z,26.30
2018-07-26T21:45:12.549Z,26.20
2018-07-26T21:50:15.041Z,26.10
2018-07-26T21:55:17.542Z,26.10
2018-07-26T22:00:20.058Z,26.00
2018-07-26T22:05:22.590Z,25.90
2018-07-26T22:10:25.087Z,25.80
2018-07-26T22:15:28.358Z,25.70
2018-07-26T22:20:30.858Z,25.70
2018-07-26T22:25:33.346Z,25.60
2018-07-26T22:30:35.892Z,25.60
2018-07-26T22:35:38.381Z,25.40
2018-07-26T22:40:40.936Z,25.40
2018-07-26T22:45:43.481Z,25.30
2018-07-26T22:50:46.055Z,25.20
2018-07-26T22:55:48.549Z,25.20
2018-07-26T23:00:51.039Z,25.00
2018-07-26T23:05:54.356Z,25.00
2018-07-26T23:10:57.122Z,24.90
2018-07-26T23:15:59.642Z,24.80
2018-07-26T23:21:02.119Z,24.70
2018-07-26T23:26:04.649Z,24.60
2018-07-26T23:31:07.134Z,24.60
2018-07-26T23:36:09.632Z,24.50
2018-07-26T23:41:12.124Z,24.40
2018-07-26T23:46:14.621Z,24.30
2018-07-26T23:51:17.142Z,24.20
2018-07-26T23:56:19.630Z,24.10
